createdAt,value
2019-02-27T00:00:11.400Z,1.20
2019-02-27T00:02:41.597Z,1.30
2019-02-27T00:05:11.449Z,1.20
2019-02-27T00:07:41.125Z,1.10
2019-02-27T00:10:10.786Z,1.60
2019-02-27T00:12:40.435Z,1.10
2019-02-27T00:15:10.179Z,1.50
2019-02-27T00:17:39.830Z,1.20
2019-02-27T00:20:09.567Z,1.33
2019-02-27T00:22:39.217Z,1.63
2019-02-27T00:25:09.057Z,1.20
2019-02-27T00:27:38.724Z,1.20
2019-02-27T00:30:08.647Z,1.30
2019-02-27T00:32:38.290Z,1.40
2019-02-27T00:35:08.110Z,1.43
2019-02-27T00:37:38.044Z,1.37
2019-02-27T00:40:08.244Z,1.40
2019-02-27T00:42:37.991Z,1.30
2019-02-27T00:45:08.202Z,1.63
2019-02-27T00:47:38.351Z,1.80
2019-02-27T00:50:08.372Z,1.73
2019-02-27T00:52:38.044Z,1.70
2019-02-27T00:55:07.792Z,1.33
2019-02-27T00:57:37.541Z,1.50
2019-02-27T01:00:09.512Z,1.50
2019-02-27T01:02:39.164Z,1.20
2019-02-27T01:05:09.468Z,1.20
2019-02-27T01:07:39.579Z,1.47
2019-02-27T01:10:12.038Z,1.27
2019-02-27T01:12:41.010Z,1.63
2019-02-27T01:15:11.307Z,1.60
2019-02-27T01:17:41.165Z,1.50
2019-02-27T01:20:11.979Z,1.50
2019-02-27T01:22:41.752Z,1.70
2019-02-27T01:25:11.553Z,1.60
2019-02-27T01:27:41.316Z,1.60
2019-02-27T01:30:12.816Z,1.50
2019-02-27T01:32:42.693Z,1.40
2019-02-27T01:35:17.805Z,1.73
2019-02-27T01:37:45.958Z,1.63
2019-02-27T01:40:18.084Z,1.47
2019-02-27T01:42:48.039Z,1.30
2019-02-27T01:45:20.622Z,1.50
2019-02-27T01:47:49.221Z,1.47
2019-02-27T01:50:44.201Z,1.30
2019-02-27T01:53:14.196Z,1.40
2019-02-27T01:55:43.847Z,1.37
2019-02-27T01:58:13.509Z,1.63
2019-02-27T02:00:43.191Z,1.37
2019-02-27T02:03:13.743Z,1.30
2019-02-27T02:05:44.435Z,1.27
2019-02-27T02:08:14.638Z,1.27
2019-02-27T02:10:44.591Z,1.40
2019-02-27T02:13:23.907Z,1.40
2019-02-27T02:16:27.166Z,1.40
2019-02-27T02:19:39.412Z,1.30
2019-02-27T02:22:25.245Z,1.40
2019-02-27T02:25:28.642Z,1.40
2019-02-27T02:28:27.277Z,1.30
2019-02-27T02:31:50.512Z,1.73
2019-02-27T02:34:51.510Z,1.50
2019-02-27T02:37:59.937Z,1.20
2019-02-27T02:41:19.800Z,1.17
2019-02-27T02:44:28.903Z,1.20
2019-02-27T02:47:33.833Z,1.27
2019-02-27T02:50:40.217Z,1.50
2019-02-27T02:53:37.277Z,1.20
2019-02-27T02:56:23.866Z,1.43
2019-02-27T02:59:25.934Z,1.40
2019-02-27T03:02:08.361Z,2.23
2019-02-27T03:05:15.842Z,1.63
2019-02-27T03:08:25.223Z,1.60
2019-02-27T03:11:19.444Z,1.50
2019-02-27T03:14:27.083Z,1.93
2019-02-27T03:17:30.597Z,1.47
2019-02-27T03:20:51.829Z,1.40
2019-02-27T03:23:52.062Z,1.43
2019-02-27T03:27:11.642Z,1.60
2019-02-27T03:30:34.332Z,1.60
2019-02-27T03:33:23.206Z,1.60
2019-02-27T03:36:11.779Z,1.50
2019-02-27T03:39:11.144Z,2.17
2019-02-27T03:42:20.420Z,1.40
2019-02-27T03:45:15.379Z,1.90
2019-02-27T03:48:17.038Z,1.60
2019-02-27T03:51:33.871Z,1.47
2019-02-27T03:54:22.216Z,1.70
2019-02-27T03:57:47.593Z,1.73
2019-02-27T04:00:29.823Z,1.93
2019-02-27T04:03:18.298Z,2.33
2019-02-27T04:06:21.586Z,1.70
2019-02-27T04:09:01.419Z,2.10
2019-02-27T04:11:31.436Z,2.07
2019-02-27T04:14:05.038Z,2.07
2019-02-27T04:16:33.195Z,2.10
2019-02-27T04:19:04.478Z,1.90
2019-02-27T04:21:34.191Z,2.00
2019-02-27T04:24:03.924Z,2.37
2019-02-27T04:26:33.590Z,2.43
2019-02-27T04:29:04.418Z,2.20
2019-02-27T04:31:34.640Z,2.27
2019-02-27T04:34:04.682Z,2.50
2019-02-27T04:36:34.311Z,2.20
2019-02-27T04:39:04.723Z,2.50
2019-02-27T04:41:34.361Z,2.37
2019-02-27T04:44:06.037Z,2.40
2019-02-27T04:46:35.885Z,2.50
2019-02-27T04:49:05.524Z,2.57
2019-02-27T04:51:35.203Z,2.53
2019-02-27T04:54:07.304Z,2.73
2019-02-27T04:56:36.163Z,2.97
2019-02-27T04:59:05.818Z,3.10
2019-02-27T05:01:36.674Z,2.90
2019-02-27T05:04:06.783Z,3.30
2019-02-27T05:06:36.471Z,3.33
2019-02-27T05:09:07.423Z,2.77
2019-02-27T05:11:37.086Z,3.40
2019-02-27T05:14:06.781Z,4.47
2019-02-27T05:16:37.733Z,4.00
2019-02-27T05:19:07.410Z,3.60
2019-02-27T05:21:37.094Z,3.57
2019-02-27T05:24:07.726Z,3.63
2019-02-27T05:26:38.250Z,4.13
2019-02-27T05:29:07.880Z,3.60
2019-02-27T05:31:37.597Z,3.60
2019-02-27T05:34:07.255Z,4.17
2019-02-27T05:36:37.311Z,4.30
2019-02-27T05:39:07.914Z,4.13
2019-02-27T05:41:37.932Z,4.17
2019-02-27T05:44:07.887Z,4.57
2019-02-27T05:46:38.294Z,4.97
2019-02-27T05:49:08.745Z,5.00
2019-02-27T05:51:38.845Z,4.90
2019-02-27T05:54:09.017Z,4.53
2019-02-27T05:56:38.970Z,4.93
2019-02-27T05:59:13.481Z,5.13
2019-02-27T06:01:46.747Z,5.33
2019-02-27T06:04:18.137Z,6.30
2019-02-27T06:06:48.458Z,6.17
2019-02-27T06:09:18.555Z,5.60
2019-02-27T06:11:48.599Z,5.20
2019-02-27T06:14:21.183Z,5.77
2019-02-27T06:16:50.142Z,7.17
2019-02-27T06:19:20.561Z,7.17
2019-02-27T06:21:50.773Z,6.10
2019-02-27T06:24:21.411Z,6.90
2019-02-27T06:26:55.127Z,6.80
2019-02-27T06:29:25.676Z,7.47
2019-02-27T06:31:55.783Z,6.70
2019-02-27T06:34:25.918Z,7.13
2019-02-27T06:36:56.982Z,7.67
2019-02-27T06:39:27.333Z,7.80
2019-02-27T06:41:57.463Z,7.93
2019-02-27T06:44:27.728Z,8.57
2019-02-27T06:46:58.032Z,8.67
2019-02-27T06:49:30.131Z,8.67
2019-02-27T06:52:00.504Z,9.53
2019-02-27T06:54:31.103Z,9.07
2019-02-27T06:57:01.743Z,10.07
2019-02-27T06:59:31.938Z,9.67
2019-02-27T07:02:03.762Z,10.73
2019-02-27T07:04:36.457Z,10.50
2019-02-27T07:07:11.151Z,10.60
2019-02-27T07:09:43.243Z,10.40
2019-02-27T07:12:14.853Z,10.33
2019-02-27T07:14:45.875Z,10.57
2019-02-27T07:17:17.189Z,11.33
2019-02-27T07:19:49.756Z,11.00
2019-02-27T07:22:20.559Z,11.20
2019-02-27T07:24:51.902Z,11.00
2019-02-27T07:27:22.936Z,12.10
2019-02-27T07:29:53.972Z,11.73
2019-02-27T07:32:24.979Z,11.83
2019-02-27T07:34:55.341Z,11.90
2019-02-27T07:37:27.183Z,12.20
2019-02-27T07:39:57.998Z,12.47
2019-02-27T07:42:31.880Z,11.37
2019-02-27T07:45:00.097Z,11.77
2019-02-27T07:47:31.367Z,12.03
2019-02-27T07:50:02.673Z,11.00
2019-02-27T07:52:34.596Z,12.07
2019-02-27T07:55:18.451Z,12.03
2019-02-27T07:57:37.986Z,12.57
2019-02-27T08:00:14.818Z,12.27
2019-02-27T08:02:43.352Z,11.77
2019-02-27T08:05:13.778Z,12.30
2019-02-27T08:07:48.668Z,12.87
2019-02-27T08:10:17.918Z,12.20
2019-02-27T08:12:48.320Z,12.47
2019-02-27T08:15:19.462Z,11.77
2019-02-27T08:17:50.327Z,12.07
2019-02-27T08:20:21.257Z,12.57
2019-02-27T08:22:51.648Z,13.30
2019-02-27T08:25:21.913Z,12.10
2019-02-27T08:27:54.143Z,11.80
2019-02-27T08:30:24.004Z,12.80
2019-02-27T08:32:54.257Z,12.50
2019-02-27T08:35:24.821Z,12.47
2019-02-27T08:38:02.229Z,12.63
2019-02-27T08:40:27.033Z,13.00
2019-02-27T08:42:57.340Z,11.47
2019-02-27T08:45:27.767Z,11.33
2019-02-27T08:47:58.286Z,12.23
2019-02-27T08:50:31.533Z,12.27
2019-02-27T08:53:01.063Z,12.17
2019-02-27T08:55:31.602Z,12.30
2019-02-27T08:58:01.695Z,11.37
2019-02-27T09:00:32.647Z,11.40
2019-02-27T09:03:03.586Z,11.40
2019-02-27T09:05:33.906Z,11.53
2019-02-27T09:08:03.935Z,11.40
2019-02-27T09:10:33.974Z,10.90
2019-02-27T09:13:05.802Z,11.90
2019-02-27T09:15:35.633Z,11.03
2019-02-27T09:18:05.560Z,11.00
2019-02-27T09:20:35.751Z,10.87
2019-02-27T09:23:05.796Z,10.90
2019-02-27T09:25:35.800Z,11.10
2019-02-27T09:28:09.036Z,10.67
2019-02-27T09:30:37.699Z,10.40
2019-02-27T09:33:07.821Z,10.07
2019-02-27T09:35:38.779Z,10.80
2019-02-27T09:38:09.260Z,10.50
2019-02-27T09:40:39.664Z,10.10
2019-02-27T09:43:10.191Z,10.20
2019-02-27T09:45:46.290Z,9.73
2019-02-27T09:48:13.316Z,9.07
2019-02-27T09:50:47.709Z,10.37
2019-02-27T09:53:16.409Z,9.80
2019-02-27T09:55:46.446Z,10.30
2019-02-27T09:58:16.549Z,9.67
2019-02-27T10:00:48.557Z,9.40
2019-02-27T10:03:21.295Z,9.93
2019-02-27T10:05:50.382Z,9.10
2019-02-27T10:08:20.446Z,9.03
2019-02-27T10:10:50.386Z,8.83
2019-02-27T10:13:20.251Z,9.17
2019-02-27T10:15:50.252Z,8.97
2019-02-27T10:18:22.096Z,8.47
2019-02-27T10:20:52.447Z,8.70
2019-02-27T10:23:22.379Z,8.20
2019-02-27T10:25:52.458Z,9.20
2019-02-27T10:28:22.526Z,7.90
2019-02-27T10:30:52.549Z,8.30
2019-02-27T10:33:22.574Z,8.23
2019-02-27T10:35:52.614Z,8.63
2019-02-27T10:38:22.872Z,7.70
2019-02-27T10:40:53.054Z,7.30
2019-02-27T10:43:23.130Z,8.17
2019-02-27T10:45:53.272Z,6.93
2019-02-27T10:48:23.583Z,7.07
2019-02-27T10:50:53.584Z,7.03
2019-02-27T10:53:26.866Z,6.90
2019-02-27T10:55:56.119Z,6.53
2019-02-27T10:58:26.248Z,7.07
2019-02-27T11:00:58.149Z,6.33
2019-02-27T11:03:28.182Z,6.60
2019-02-27T11:05:58.346Z,5.83
2019-02-27T11:08:29.598Z,6.37
2019-02-27T11:10:59.603Z,5.27
2019-02-27T11:13:29.663Z,5.80
2019-02-27T11:15:59.637Z,5.20
2019-02-27T11:18:29.582Z,5.37
2019-02-27T11:20:59.562Z,5.63
2019-02-27T11:23:29.731Z,5.57
2019-02-27T11:25:59.692Z,5.37
2019-02-27T11:28:29.833Z,5.00
2019-02-27T11:30:59.920Z,5.03
2019-02-27T11:33:33.444Z,4.47
2019-02-27T11:36:03.154Z,4.80
2019-02-27T11:38:33.741Z,4.40
2019-02-27T11:41:03.774Z,4.27
2019-02-27T11:43:33.830Z,4.77
2019-02-27T11:46:03.915Z,5.10
2019-02-27T11:48:34.029Z,4.93
2019-02-27T11:51:04.033Z,4.30
2019-02-27T11:53:35.861Z,4.00
2019-02-27T11:56:05.950Z,4.00
2019-02-27T11:58:38.536Z,4.20
2019-02-27T12:01:07.894Z,3.70
2019-02-27T12:03:38.005Z,4.30
2019-02-27T12:06:08.493Z,3.27
2019-02-27T12:08:38.648Z,3.80
2019-02-27T12:11:09.686Z,4.00
2019-02-27T12:13:40.325Z,4.50
2019-02-27T12:16:10.723Z,3.53
2019-02-27T12:18:40.977Z,4.07
2019-02-27T12:21:11.021Z,3.60
2019-02-27T12:23:41.211Z,3.77
2019-02-27T12:26:12.938Z,4.07
2019-02-27T12:28:43.195Z,4.13
2019-02-27T12:31:14.360Z,4.47
2019-02-27T12:33:44.571Z,5.10
2019-02-27T12:36:16.109Z,4.70
2019-02-27T12:38:46.323Z,5.23
2019-02-27T12:41:16.239Z,5.27
2019-02-27T12:43:46.379Z,5.10
2019-02-27T12:46:16.407Z,5.37
2019-02-27T12:48:47.041Z,5.50
2019-02-27T12:51:17.107Z,6.27
2019-02-27T12:53:47.377Z,5.50
2019-02-27T12:56:17.343Z,6.40
2019-02-27T12:58:47.427Z,5.83
2019-02-27T13:01:17.524Z,6.03
2019-02-27T13:03:47.652Z,4.90
2019-02-27T13:06:17.765Z,4.90
2019-02-27T13:08:52.587Z,5.13
2019-02-27T13:11:19.558Z,4.90
2019-02-27T13:13:49.683Z,4.60
2019-02-27T13:16:20.118Z,3.83
2019-02-27T13:18:50.140Z,4.47
2019-02-27T13:21:21.217Z,4.00
2019-02-27T13:23:51.378Z,4.00
2019-02-27T13:26:21.527Z,3.93
2019-02-27T13:28:51.720Z,3.90
2019-02-27T13:31:21.869Z,3.93
2019-02-27T13:33:51.962Z,4.03
2019-02-27T13:36:21.966Z,4.00
2019-02-27T13:38:52.304Z,4.17
2019-02-27T13:41:23.768Z,4.03
2019-02-27T13:43:54.205Z,4.00
2019-02-27T13:46:24.186Z,4.87
2019-02-27T13:48:54.544Z,4.80
2019-02-27T13:51:24.534Z,4.50
2019-02-27T13:54:00.322Z,5.17
2019-02-27T13:56:27.537Z,4.20
2019-02-27T13:58:58.179Z,3.83
2019-02-27T14:01:28.600Z,3.80
2019-02-27T14:03:59.352Z,4.23
2019-02-27T14:06:29.497Z,3.47
2019-02-27T14:08:59.531Z,3.80
2019-02-27T14:11:29.712Z,3.53
2019-02-27T14:14:00.559Z,3.03
2019-02-27T14:16:34.494Z,3.37
2019-02-27T14:19:02.400Z,3.73
2019-02-27T14:21:35.291Z,3.10
2019-02-27T14:24:04.285Z,3.33
2019-02-27T14:26:34.316Z,3.53
2019-02-27T14:29:04.302Z,3.00
2019-02-27T14:31:34.739Z,2.83
2019-02-27T14:34:05.762Z,3.10
2019-02-27T14:36:35.920Z,2.80
2019-02-27T14:39:08.542Z,2.67
2019-02-27T14:41:38.549Z,2.50
2019-02-27T14:44:08.837Z,2.90
2019-02-27T14:46:38.852Z,2.63
2019-02-27T14:49:09.012Z,2.93
2019-02-27T14:51:41.165Z,2.90
2019-02-27T14:54:10.837Z,2.80
2019-02-27T14:56:41.630Z,2.97
2019-02-27T14:59:12.692Z,2.60
2019-02-27T15:01:43.037Z,2.83
2019-02-27T15:04:13.036Z,2.70
2019-02-27T15:06:43.162Z,2.73
2019-02-27T15:09:13.296Z,2.87
2019-02-27T15:11:44.956Z,2.67
2019-02-27T15:14:18.180Z,2.80
2019-02-27T15:16:51.332Z,2.93
2019-02-27T15:19:21.400Z,3.00
2019-02-27T15:21:51.577Z,2.60
2019-02-27T15:24:21.609Z,2.67
2019-02-27T15:26:57.815Z,3.00
2019-02-27T15:29:28.001Z,2.43
2019-02-27T15:31:58.573Z,3.13
2019-02-27T15:34:28.556Z,2.77
2019-02-27T15:37:01.029Z,2.60
2019-02-27T15:39:30.392Z,3.00
2019-02-27T15:42:00.513Z,3.90
2019-02-27T15:44:31.376Z,2.90
2019-02-27T15:47:02.379Z,2.90
2019-02-27T15:49:32.631Z,2.90
2019-02-27T15:52:06.576Z,2.77
2019-02-27T15:54:34.233Z,2.73
2019-02-27T15:57:04.386Z,3.00
2019-02-27T15:59:34.377Z,2.77
2019-02-27T16:02:04.436Z,2.63
2019-02-27T16:04:34.612Z,2.70
2019-02-27T16:07:05.359Z,2.83
2019-02-27T16:09:35.642Z,2.60
2019-02-27T16:12:05.857Z,3.37
2019-02-27T16:14:36.011Z,3.00
2019-02-27T16:17:05.750Z,3.20
2019-02-27T16:19:35.410Z,2.67
2019-02-27T16:22:05.244Z,2.90
2019-02-27T16:24:35.025Z,2.40
2019-02-27T16:27:04.689Z,2.67
2019-02-27T16:29:34.539Z,2.83
2019-02-27T16:32:04.669Z,2.40
2019-02-27T16:34:34.675Z,3.37
2019-02-27T16:37:04.530Z,2.60
2019-02-27T16:39:34.207Z,2.83
2019-02-27T16:42:05.975Z,2.70
2019-02-27T16:44:35.296Z,3.00
2019-02-27T16:47:05.017Z,2.87
2019-02-27T16:49:34.693Z,2.93
2019-02-27T16:52:07.639Z,2.70
2019-02-27T16:54:35.763Z,2.83
2019-02-27T16:57:05.415Z,3.00
2019-02-27T16:59:35.098Z,2.37
2019-02-27T17:02:04.835Z,2.67
2019-02-27T17:04:34.915Z,2.50
2019-02-27T17:07:04.589Z,2.60
2019-02-27T17:09:34.323Z,2.67
2019-02-27T17:12:06.901Z,2.83
2019-02-27T17:14:35.409Z,2.70
2019-02-27T17:17:05.166Z,3.03
2019-02-27T17:19:36.534Z,3.17
2019-02-27T17:22:06.181Z,2.80
2019-02-27T17:24:35.841Z,3.00
2019-02-27T17:27:05.739Z,3.13
2019-02-27T17:29:35.693Z,3.12
2019-02-27T17:32:05.610Z,2.80
2019-02-27T17:34:35.780Z,2.57
2019-02-27T17:37:06.440Z,2.50
2019-02-27T17:39:36.824Z,2.43
2019-02-27T17:42:06.496Z,2.63
2019-02-27T17:44:37.803Z,2.60
2019-02-27T17:47:08.236Z,2.90
2019-02-27T17:49:38.367Z,2.47
2019-02-27T17:52:11.324Z,2.60
2019-02-27T17:54:40.978Z,3.00
2019-02-27T17:57:10.661Z,2.30
2019-02-27T17:59:42.298Z,3.00
2019-02-27T18:02:11.844Z,2.33
2019-02-27T18:04:41.476Z,2.20
2019-02-27T18:07:11.174Z,2.20
2019-02-27T18:09:40.823Z,2.50
2019-02-27T18:12:10.501Z,2.47
2019-02-27T18:14:43.923Z,2.60
2019-02-27T18:17:11.528Z,2.30
2019-02-27T18:19:41.203Z,2.10
2019-02-27T18:22:13.997Z,2.43
2019-02-27T18:24:42.604Z,2.27
2019-02-27T18:27:12.279Z,2.40
2019-02-27T18:29:43.742Z,2.40
2019-02-27T18:32:13.262Z,2.50
2019-02-27T18:34:43.288Z,2.43
2019-02-27T18:37:14.506Z,2.13
2019-02-27T18:39:44.242Z,2.40
2019-02-27T18:42:13.897Z,1.97
2019-02-27T18:44:44.074Z,2.27
2019-02-27T18:47:14.199Z,2.30
2019-02-27T18:49:44.132Z,1.97
2019-02-27T18:52:21.222Z,2.20
2019-02-27T18:54:45.087Z,2.00
2019-02-27T18:57:14.823Z,2.30
2019-02-27T18:59:53.007Z,2.20
2019-02-27T19:02:22.653Z,2.00
2019-02-27T19:04:52.334Z,2.30
2019-02-27T19:07:22.022Z,2.03
2019-02-27T19:09:51.680Z,2.03
2019-02-27T19:12:28.406Z,2.20
2019-02-27T19:14:54.570Z,2.37
2019-02-27T19:17:29.053Z,2.47
2019-02-27T19:19:55.549Z,2.50
2019-02-27T19:22:25.296Z,2.07
2019-02-27T19:24:57.478Z,2.03
2019-02-27T19:27:26.765Z,2.13
2019-02-27T19:29:56.470Z,2.40
2019-02-27T19:32:26.138Z,2.17
2019-02-27T19:34:55.803Z,2.40
2019-02-27T19:37:26.023Z,2.27
2019-02-27T19:39:56.351Z,1.67
2019-02-27T19:42:26.751Z,2.10
2019-02-27T19:44:56.716Z,2.00
2019-02-27T19:47:26.413Z,2.50
2019-02-27T19:49:56.527Z,2.20
2019-02-27T19:52:28.365Z,2.30
2019-02-27T19:54:58.097Z,2.00
2019-02-27T19:57:28.448Z,2.20
2019-02-27T19:59:59.140Z,1.80
2019-02-27T20:02:29.418Z,2.20
2019-02-27T20:04:59.163Z,2.13
2019-02-27T20:07:28.948Z,2.00
2019-02-27T20:09:58.722Z,2.20
2019-02-27T20:12:28.613Z,1.93
2019-02-27T20:14:58.295Z,2.27
2019-02-27T20:17:32.783Z,2.13
2019-02-27T20:20:00.538Z,2.20
2019-02-27T20:22:30.654Z,2.00
2019-02-27T20:25:00.328Z,2.10
2019-02-27T20:27:30.078Z,2.00
2019-02-27T20:29:59.728Z,2.03
2019-02-27T20:32:29.838Z,1.80
2019-02-27T20:34:59.917Z,2.13
2019-02-27T20:37:29.588Z,2.90
2019-02-27T20:39:59.513Z,2.10
2019-02-27T20:42:29.203Z,1.97
2019-02-27T20:44:58.832Z,2.13
2019-02-27T20:47:28.891Z,1.90
2019-02-27T20:49:58.550Z,2.00
2019-02-27T20:52:28.235Z,2.50
2019-02-27T20:54:58.930Z,2.40
2019-02-27T20:57:29.330Z,1.90
2019-02-27T21:00:02.442Z,1.80
2019-02-27T21:02:30.365Z,2.27
2019-02-27T21:05:00.103Z,2.27
2019-02-27T21:07:30.404Z,2.40
2019-02-27T21:10:00.304Z,2.27
2019-02-27T21:12:30.061Z,2.13
2019-02-27T21:15:01.793Z,2.00
2019-02-27T21:17:34.643Z,2.90
2019-02-27T21:20:04.631Z,3.17
2019-02-27T21:22:34.588Z,2.47
2019-02-27T21:25:04.833Z,2.10
2019-02-27T21:27:47.420Z,2.30
2019-02-27T21:30:19.029Z,2.23
2019-02-27T21:32:49.637Z,2.10
2019-02-27T21:35:19.765Z,2.07
2019-02-27T21:37:50.941Z,2.23
2019-02-27T21:40:20.912Z,2.70
2019-02-27T21:42:51.195Z,2.20
2019-02-27T21:45:21.742Z,2.23
2019-02-27T21:47:52.737Z,2.10
2019-02-27T21:50:22.719Z,2.10
2019-02-27T21:52:54.405Z,1.90
2019-02-27T21:55:23.868Z,2.17
2019-02-27T21:57:53.528Z,1.90
2019-02-27T22:00:24.427Z,2.20
2019-02-27T22:02:54.873Z,2.23
2019-02-27T22:05:24.766Z,2.00
2019-02-27T22:07:55.263Z,2.37
2019-02-27T22:10:25.399Z,2.43
2019-02-27T22:12:55.551Z,2.03
2019-02-27T22:15:27.183Z,2.20
2019-02-27T22:17:56.846Z,2.27
2019-02-27T22:20:27.058Z,2.37
2019-02-27T22:22:57.628Z,2.20
2019-02-27T22:25:30.474Z,2.03
2019-02-27T22:27:58.846Z,2.47
2019-02-27T22:30:31.783Z,1.80
2019-02-27T22:33:00.232Z,2.00
2019-02-27T22:35:30.502Z,1.90
2019-02-27T22:38:00.292Z,2.83
2019-02-27T22:40:30.030Z,1.70
2019-02-27T22:42:59.728Z,1.80
2019-02-27T22:45:29.447Z,1.63
2019-02-27T22:47:59.627Z,2.20
2019-02-27T22:50:29.346Z,2.10
2019-02-27T22:53:02.449Z,2.00
2019-02-27T22:55:32.143Z,1.77
2019-02-27T22:58:01.899Z,2.13
2019-02-27T23:01:02.231Z,2.00
2019-02-27T23:03:34.733Z,2.00
2019-02-27T23:06:04.730Z,2.37
2019-02-27T23:08:34.693Z,1.83
2019-02-27T23:11:04.606Z,1.90
2019-02-27T23:13:34.289Z,2.00
2019-02-27T23:16:04.110Z,1.90
2019-02-27T23:18:33.893Z,2.43
2019-02-27T23:21:04.252Z,2.10
2019-02-27T23:23:36.727Z,2.97
2019-02-27T23:26:05.617Z,2.20
2019-02-27T23:28:35.455Z,1.80
2019-02-27T23:31:05.103Z,1.73
2019-02-27T23:33:36.606Z,1.60
2019-02-27T23:36:06.170Z,1.73
2019-02-27T23:38:36.247Z,1.57
2019-02-27T23:41:06.046Z,1.40
2019-02-27T23:43:35.784Z,1.43
2019-02-27T23:46:06.007Z,1.50
2019-02-27T23:48:36.724Z,1.90
2019-02-27T23:51:06.547Z,1.57
2019-02-27T23:53:36.251Z,1.47
2019-02-27T23:56:06.409Z,1.30
2019-02-27T23:58:36.124Z,1.37
